Terminal Aerodrome Forecast
Issued by NWS Omaha/Valley, NE

Home | Current Version | Previous Version | Text Only | Print | Product List | Glossary On
Versions: 1 2 3 4 5 6 7 8 9 10 11 12 13 14 15 16 17 18 19 20 21 22 23 24 25 26 27 28 29 30 31 32 33 34 35 36 37 38
000
FTUS43 KOAX 250608 AAA
TAFLNK
TAF AMD
KLNK 250608Z 2506/2606 28016G22KT P6SM SCT060
      TEMPO 2506/2507 2SM -TSRA BKN010CB
     FM250900 29010G18KT P6SM SCT040 BKN100
     FM251700 31013G21KT P6SM SCT100
     FM260100 32010KT P6SM SKC=

USA.gov is the U.S. government's official web portal to all federal, state and local government web resources and services.